Date,TemperatureHighF,TemperatureAvgF,TemperatureLowF,DewpointHighF,DewpointAvgF,DewpointLowF,HumidityHigh,HumidityAvg,HumidityLow,PressureMaxIn,PressureMinIn,WindSpeedMaxMPH,WindSpeedAvgMPH,GustSpeedMaxMPH,PrecipitationSumIn
2013-1-1,46.0,32.4,25.0,32.0,28.4,25.0,98,87,44,0.00,40.00,2,0,3,0.12
2013-1-2,51.0,34.5,21.0,36.0,28.7,21.0,98,83,41,0.00,40.00,1,0,2,0.16
2013-1-3,53.0,37.2,24.0,35.0,29.0,24.0,98,77,34,0.00,40.00,1,0,3,0.11
2013-1-4,55.0,37.9,23.0,35.0,28.6,22.0,98,75,27,0.00,40.00,2,1,3,0.04
2013-1-5,54.0,40.0,29.0,39.0,26.7,18.0,99,64,34,0.00,40.00,4,1,11,0.01
2013-1-6,39.0,34.1,28.0,35.0,31.0,25.0,98,89,56,0.00,40.00,4,1,11,0.06
2013-1-7,49.0,33.4,23.0,37.0,29.1,23.0,98,86,47,0.00,40.00,1,0,3,0.06
2013-1-8,60.0,40.0,29.0,39.0,32.6,29.0,98,80,41,0.00,40.00,2,0,5,0.01
2013-1-9,59.0,44.3,30.0,40.0,30.6,27.0,98,62,30,0.00,40.00,3,2,8,0.02
2013-1-10,36.0,28.2,20.0,30.0,24.2,18.0,98,85,56,0.00,40.00,2,1,6,0.02
2013-1-11,34.0,24.9,15.0,22.0,17.8,13.0,97,77,43,0.00,40.00,2,1,6,0.00
2013-1-12,38.0,24.6,12.0,25.0,16.1,9.0,95,74,31,0.00,40.00,2,1,5,0.00
2013-1-13,37.0,25.0,13.0,22.0,16.4,9.0,94,72,33,0.00,40.00,2,1,5,0.00
2013-1-14,40.0,27.2,12.0,23.0,17.9,10.0,96,72,31,0.00,40.00,2,1,6,0.00
2013-1-15,48.0,31.9,19.0,26.0,22.2,18.0,98,72,32,0.00,40.00,1,1,3,0.00
2013-1-16,60.0,39.9,26.0,34.0,26.1,23.0,94,65,24,0.00,40.00,1,0,4,0.00
2013-1-17,61.0,44.0,28.0,29.0,23.5,17.0,80,50,18,0.00,40.00,1,0,4,0.00
2013-1-18,62.0,44.3,27.0,31.0,23.6,18.0,81,50,19,0.00,40.00,1,0,3,0.00
2013-1-19,62.0,43.4,27.0,33.0,20.0,9.0,82,47,12,0.00,40.00,1,0,4,0.00
2013-1-20,63.0,43.7,27.0,31.0,22.1,11.0,79,50,13,0.00,40.00,1,0,4,0.00
2013-1-21,65.0,45.3,27.0,29.0,22.9,18.0,82,48,16,0.00,40.00,2,1,4,0.00
2013-1-22,64.0,46.0,30.0,33.0,23.4,16.0,78,47,16,0.00,40.00,2,1,4,0.00
2013-1-23,61.0,46.4,33.0,44.0,27.4,14.0,99,53,16,0.00,40.00,2,1,10,0.03
2013-1-24,52.0,45.4,41.0,52.0,44.9,39.0,99,97,78,0.00,40.00,2,0,5,0.45
2013-1-25,57.0,45.8,38.0,52.0,44.1,38.0,99,94,72,0.00,40.00,1,0,3,0.15
2013-1-26,54.0,40.9,34.0,50.0,39.0,34.0,99,93,61,0.00,40.00,3,1,8,0.01
2013-1-27,42.0,33.4,26.0,39.0,29.2,22.0,99,86,52,0.00,40.00,2,1,8,0.03
2013-1-28,41.0,30.1,20.0,28.0,23.7,15.0,98,81,35,0.00,40.00,2,1,6,0.01
2013-1-29,47.0,33.3,25.0,33.0,28.4,25.0,98,84,49,0.00,40.00,2,1,5,0.00
2013-1-30,60.0,43.1,29.0,36.0,31.7,29.0,99,70,33,0.00,40.00,3,1,6,0.00
2013-1-31,64.0,50.2,28.0,41.0,32.6,28.0,98,57,27,0.00,40.00,3,1,7,0.00
2013-2-1,67.0,48.2,29.0,39.0,34.0,26.0,98,66,22,0.00,40.00,1,1,3,0.00
2013-2-2,58.0,44.1,32.0,42.0,35.1,28.0,96,72,44,0.00,40.00,1,0,2,0.00
2013-2-3,63.0,45.2,29.0,40.0,32.4,26.0,98,67,25,0.00,40.00,2,1,5,0.00
2013-2-4,64.0,47.2,28.0,37.0,31.5,20.0,98,62,18,0.00,40.00,3,1,5,0.00
2013-2-5,62.0,44.0,30.0,40.0,31.7,22.0,98,68,23,0.00,40.00,2,1,6,0.00
2013-2-6,57.0,38.9,26.0,38.0,31.2,14.0,98,79,18,0.00,40.00,2,1,6,0.00
2013-2-7,50.0,35.9,26.0,32.0,27.8,19.0,98,75,41,0.00,40.00,3,1,8,0.00
2013-2-8,41.0,30.8,26.0,31.0,28.3,26.0,98,90,62,0.00,40.00,1,1,4,0.03
2013-2-9,46.0,30.7,21.0,32.0,26.6,20.0,98,87,38,0.00,40.00,3,0,6,0.17
2013-2-10,43.0,32.1,22.0,31.0,27.6,22.0,98,84,52,0.00,40.00,2,1,6,0.01
2013-2-11,49.0,33.9,21.0,31.0,26.3,13.0,98,78,28,0.00,40.00,2,1,5,0.01
2013-2-12,52.0,35.4,24.0,31.0,27.4,24.0,98,77,35,0.00,40.00,2,0,5,0.00
2013-2-13,58.0,39.0,26.0,35.0,29.7,25.0,98,75,30,0.00,40.00,2,0,4,0.00
2013-2-14,63.0,46.3,28.0,34.0,30.0,22.0,98,62,21,0.00,40.00,3,1,6,0.00
2013-2-15,68.0,48.5,27.0,34.0,27.9,20.0,94,54,17,0.00,40.00,2,1,5,0.00
2013-2-16,65.0,49.0,29.0,32.0,24.8,15.0,81,44,15,0.00,40.00,1,1,4,0.00
2013-2-17,61.0,45.9,27.0,36.0,26.0,14.0,96,52,17,0.00,40.00,2,1,7,0.00
2013-2-18,60.0,41.8,28.0,37.0,32.2,22.0,98,74,23,0.00,40.00,2,1,7,0.00
2013-2-19,39.0,33.1,27.0,36.0,31.0,27.0,98,92,79,0.00,40.00,3,1,8,0.07
2013-2-20,46.0,31.8,23.0,33.0,28.5,23.0,98,88,57,0.00,40.00,2,1,6,0.16
2013-2-21,47.0,34.4,26.0,33.0,28.5,21.0,98,82,35,0.00,40.00,2,1,6,0.01
2013-2-22,51.0,37.4,25.0,36.0,30.2,21.0,98,79,32,0.00,40.00,2,1,6,0.00
2013-2-23,48.0,36.7,28.0,34.0,31.1,28.0,99,83,45,0.00,40.00,2,1,5,0.00
2013-2-24,54.0,36.8,23.0,33.0,25.9,13.0,98,72,21,0.00,40.00,2,1,4,0.00
2013-2-25,59.0,39.7,25.0,35.0,28.1,21.0,98,71,24,0.00,40.00,2,1,6,0.00
2013-2-26,58.0,39.3,24.0,34.0,28.3,15.0,98,71,18,0.00,40.00,2,1,6,0.00
2013-2-27,61.0,43.7,25.0,36.0,29.1,4.0,98,64,10,0.00,40.00,2,1,5,0.00
2013-2-28,64.0,47.8,28.0,39.0,32.7,23.0,98,62,22,0.00,40.00,2,1,5,0.00
2013-3-1,71.0,53.0,32.0,40.0,32.2,26.0,99,53,22,0.00,40.00,4,1,8,0.00
2013-3-2,69.0,53.2,34.0,34.0,27.6,20.0,83,43,17,0.00,40.00,4,1,8,0.00
2013-3-3,52.0,42.3,36.0,43.0,39.3,28.0,99,90,40,0.00,40.00,2,1,5,0.36
2013-3-4,60.0,43.1,30.0,43.0,37.7,30.0,99,84,48,0.00,40.00,2,1,6,0.01
2013-3-5,59.0,45.8,32.0,39.0,35.1,26.0,99,70,43,0.00,40.00,5,2,10,0.01
2013-3-6,44.0,36.0,32.0,38.0,33.9,26.0,99,93,48,0.00,40.00,3,1,10,0.75
2013-3-7,38.0,33.7,32.0,38.0,33.6,32.0,99,99,97,0.00,40.00,1,0,3,0.62
2013-3-8,45.0,36.1,31.0,40.0,34.2,31.0,99,93,70,0.00,40.00,2,1,6,0.11
2013-3-9,53.0,39.3,31.0,40.0,34.6,31.0,99,86,45,0.00,40.00,2,1,6,0.12
2013-3-10,63.0,50.7,29.0,43.0,36.8,28.0,99,65,26,0.00,40.00,2,1,7,0.04
2013-3-11,70.0,46.8,30.0,47.0,37.7,27.0,99,78,21,0.00,40.00,3,0,6,0.00
2013-3-12,75.0,53.4,32.0,47.0,37.3,25.0,99,63,16,0.00,40.00,2,1,6,0.00
2013-3-13,78.0,59.5,34.0,46.0,36.7,30.0,95,53,18,0.00,40.00,2,1,5,0.00
2013-3-14,78.0,57.7,39.0,45.0,36.3,22.0,85,52,14,0.00,40.00,2,1,5,0.00
2013-3-15,74.0,54.1,38.0,45.0,37.1,27.0,89,58,20,0.00,40.00,2,1,4,0.00
2013-3-16,71.0,49.6,32.0,45.0,37.6,23.0,98,69,18,0.00,40.00,3,1,6,0.00
2013-3-17,67.0,50.0,30.0,38.0,31.7,25.0,99,57,20,0.00,40.00,2,1,8,0.00
2013-3-18,67.0,49.2,30.0,44.0,35.2,19.0,95,65,16,0.00,40.00,2,1,5,0.00
2013-3-19,67.0,51.6,35.0,42.0,37.9,31.0,98,65,28,0.00,40.00,3,1,5,0.00
2013-3-20,56.0,46.1,39.0,47.0,42.3,38.0,99,88,51,0.00,40.00,1,0,4,0.21
2013-3-21,65.0,46.1,31.0,43.0,38.5,28.0,99,79,26,0.00,40.00,3,1,6,0.01
2013-3-22,61.0,44.8,29.0,39.0,33.7,17.0,99,71,18,0.00,40.00,2,1,7,0.00
2013-3-23,64.0,44.8,26.0,38.0,31.5,12.0,98,67,13,0.00,40.00,3,1,7,0.00
2013-3-24,69.0,49.6,31.0,40.0,35.4,29.0,99,66,27,0.00,40.00,2,1,6,0.00
2013-3-25,68.0,50.9,32.0,43.0,35.3,29.0,99,63,26,0.00,40.00,3,1,5,0.00
2013-3-26,62.0,48.6,34.0,39.0,35.2,27.0,92,63,35,0.00,40.00,2,1,5,0.00
2013-3-27,63.0,49.8,33.0,39.0,36.4,33.0,99,66,40,0.00,40.00,2,1,6,0.00
2013-3-28,64.0,53.9,40.0,43.0,40.6,37.0,98,64,37,0.00,40.00,2,1,6,0.00
2013-3-29,73.0,54.5,32.0,47.0,37.1,32.0,99,61,25,0.00,40.00,2,1,5,0.00
2013-3-30,72.0,55.9,37.0,46.0,39.1,33.0,90,59,27,0.00,40.00,3,1,8,0.00
2013-3-31,57.0,46.5,38.0,46.0,41.4,38.0,99,84,49,0.00,40.00,3,1,8,1.13
2013-4-1,57.0,42.9,36.0,43.0,39.6,36.0,99,89,54,0.00,40.00,2,1,4,0.30
2013-4-2,65.0,47.7,31.0,47.0,40.5,31.0,99,80,32,0.00,40.00,2,1,5,0.01
2013-4-3,73.0,53.9,33.0,47.0,39.2,33.0,99,65,26,0.00,40.00,4,1,9,0.00
2013-4-4,60.0,48.5,41.0,49.0,43.0,36.0,99,82,61,0.00,40.00,2,1,7,0.08
2013-4-5,62.0,47.6,32.0,45.0,39.6,32.0,99,78,42,0.00,40.00,2,1,6,0.01
2013-4-6,63.0,48.1,36.0,44.0,38.9,33.0,99,75,34,0.00,40.00,3,1,7,0.00
2013-4-7,65.0,51.3,34.0,43.0,39.5,34.0,99,68,43,0.00,40.00,3,1,7,0.00
2013-4-8,55.0,41.0,32.0,39.0,31.0,14.0,99,73,29,0.00,40.00,2,1,8,0.40
2013-4-9,60.0,44.6,26.0,35.0,27.1,14.0,90,57,20,0.00,40.00,2,1,7,0.10
2013-4-10,74.0,56.2,30.0,44.0,35.5,22.0,92,53,21,0.00,40.00,2,1,6,0.00
2013-4-11,68.0,55.5,40.0,47.0,44.2,39.0,99,70,39,0.00,40.00,2,1,5,0.00
2013-4-12,71.0,54.5,39.0,52.0,44.5,39.0,99,74,38,0.00,40.00,2,1,6,0.00
2013-4-13,71.0,55.2,37.0,46.0,41.1,36.0,99,65,31,0.00,40.00,2,1,6,0.00
2013-4-14,69.0,52.7,35.0,44.0,37.8,32.0,99,63,31,0.00,40.00,3,1,9,0.00
2013-4-15,55.0,43.0,33.0,37.0,32.3,26.0,99,70,40,0.00,40.00,4,2,9,0.14
2013-4-16,45.0,35.2,29.0,34.0,30.8,22.0,99,85,50,0.00,40.00,3,1,6,0.22
2013-4-17,59.0,41.7,25.0,29.0,21.2,12.0,82,50,20,0.00,40.00,3,1,8,0.07
2013-4-18,64.0,50.2,28.0,34.0,27.5,20.0,89,47,21,0.00,40.00,3,1,7,0.00
2013-4-19,70.0,56.1,32.0,39.0,34.3,29.0,97,50,25,0.00,40.00,3,1,8,0.00
2013-4-20,74.0,60.1,34.0,47.0,40.1,30.0,98,54,20,0.00,40.00,3,1,6,0.00
2013-4-21,78.0,62.3,39.0,49.0,42.3,27.0,99,55,17,0.00,40.00,2,1,5,0.00
2013-4-22,76.0,63.6,41.0,50.0,43.9,39.0,99,54,31,0.00,40.00,3,1,7,0.00
2013-4-23,78.0,61.4,42.0,47.0,42.0,36.0,99,54,29,0.00,40.00,3,1,6,0.00
2013-4-24,77.0,61.3,39.0,42.0,36.8,30.0,89,46,23,0.00,40.00,2,1,6,0.00
2013-4-25,74.0,59.7,39.0,44.0,39.3,30.0,87,51,20,0.00,40.00,2,1,6,0.00
2013-4-26,77.0,60.6,39.0,48.0,43.5,38.0,99,60,27,0.00,40.00,3,1,6,0.00
2013-4-27,82.0,66.6,42.0,50.0,41.8,36.0,99,48,22,0.00,40.00,2,1,5,0.00
2013-4-28,83.0,67.5,42.0,47.0,42.5,30.0,93,47,16,0.00,40.00,3,1,6,0.00
2013-4-29,82.0,68.1,43.0,47.0,43.2,36.0,92,46,19,0.00,40.00,4,1,7,0.00
2013-4-30,77.0,66.8,48.0,47.0,42.1,37.0,81,44,29,0.00,40.00,3,1,6,0.00
2013-5-1,78.0,64.6,44.0,45.0,39.4,35.0,95,46,23,0.00,40.00,2,1,5,0.00
2013-5-2,79.0,66.7,39.0,40.0,36.1,31.0,80,36,21,0.00,40.00,3,1,7,0.00
2013-5-3,79.0,62.9,43.0,44.0,37.9,23.0,84,45,14,0.00,40.00,3,1,6,0.00
2013-5-4,78.0,64.1,44.0,41.0,34.8,30.0,77,38,21,0.00,40.00,3,1,7,0.00
2013-5-5,64.0,54.6,45.0,42.0,35.2,29.0,78,51,28,0.00,40.00,5,2,10,0.00
2013-5-6,58.0,47.2,40.0,45.0,40.9,37.0,99,80,49,0.00,40.00,2,1,6,0.84
2013-5-7,52.0,45.5,40.0,48.0,44.1,40.0,99,95,73,0.00,40.00,1,0,4,0.70
2013-5-8,55.0,48.8,44.0,50.0,46.4,44.0,99,92,72,0.00,40.00,1,0,5,0.06
2013-5-9,66.0,52.9,37.0,55.0,48.2,37.0,99,86,49,0.00,40.00,2,1,5,0.01
2013-5-10,79.0,62.3,41.0,57.0,46.8,-99.9,99,66,31,0.00,40.00,2,1,5,0.01
2013-5-11,87.0,71.4,47.0,52.0,46.4,41.0,99,48,21,0.00,40.00,2,1,7,0.01
2013-5-12,87.0,74.2,49.0,52.0,43.7,32.0,92,39,14,0.00,40.00,2,1,6,0.00
2013-5-13,88.0,72.3,48.0,47.0,39.7,30.0,74,36,14,0.00,40.00,2,1,6,0.00
2013-5-14,78.0,67.3,50.0,49.0,41.8,35.0,73,42,26,0.00,40.00,2,1,10,0.00
2013-5-15,78.0,65.0,45.0,46.0,41.5,33.0,92,47,24,0.00,40.00,3,1,9,0.00
2013-5-16,62.0,49.3,40.0,44.0,15.8,-99.9,86,55,35,0.00,40.00,2,0,5,0.00
2013-5-17,67.0,52.8,41.0,47.0,32.9,-99.9,100,63,29,0.00,40.00,3,1,7,0.00
2013-5-18,70.0,58.5,35.0,37.0,33.4,27.0,100,44,24,0.00,40.00,3,1,7,0.00
2013-5-19,74.0,62.2,37.0,40.0,35.1,26.0,82,40,17,0.00,40.00,3,1,7,0.00
2013-5-20,79.0,66.4,41.0,39.0,36.7,33.0,87,37,23,0.00,40.00,2,1,5,0.00
2013-5-21,76.0,64.9,44.0,41.0,30.0,23.0,69,31,14,0.00,40.00,2,1,7,0.00
2013-5-22,63.0,51.8,39.0,35.0,27.8,19.0,72,41,23,0.00,40.00,3,1,7,0.00
2013-5-23,67.0,50.7,30.0,26.0,21.1,14.0,65,35,17,0.00,40.00,3,1,8,0.00
2013-5-24,72.0,56.3,32.0,33.0,28.8,22.0,75,39,22,0.00,40.00,2,1,5,0.00
2013-5-25,72.0,56.8,34.0,33.0,28.0,22.0,71,37,22,0.00,40.00,2,1,7,0.00
2013-5-26,69.0,56.3,35.0,38.0,32.4,23.0,71,43,25,0.00,40.00,2,1,6,0.00
2013-5-27,72.0,57.6,37.0,39.0,36.7,31.0,100,50,29,0.00,40.00,2,1,6,0.00
2013-5-28,72.0,56.5,47.0,48.0,42.1,37.0,100,63,29,0.00,40.00,2,1,6,0.01
2013-5-29,74.0,58.7,46.0,49.0,43.3,41.0,95,60,33,0.00,40.00,2,1,5,0.01
2013-5-30,78.0,62.5,43.0,46.0,40.8,34.0,100,51,25,0.00,40.00,2,1,6,0.00
2013-5-31,85.0,66.5,40.0,43.0,39.0,30.0,83,41,20,0.00,40.00,2,1,5,0.00
2013-6-1,90.0,76.3,46.0,45.0,36.8,-99.9,71,29,15,0.00,40.00,2,1,5,0.00
2013-6-2,88.0,74.8,49.0,41.0,36.6,28.0,47,27,16,0.00,40.00,2,1,6,0.00
2013-6-3,86.0,72.9,49.0,48.0,43.1,33.0,61,37,19,0.00,40.00,2,1,5,0.00
2013-6-4,87.0,69.8,51.0,53.0,49.4,44.0,76,50,30,0.00,40.00,2,1,8,0.00
2013-6-5,90.0,73.3,49.0,52.0,49.2,45.0,90,48,24,0.00,40.00,2,1,6,0.00
2013-6-6,93.0,74.8,51.0,55.0,48.2,40.0,85,44,21,0.00,40.00,2,1,6,0.00
2013-6-7,97.0,79.0,51.0,53.0,46.5,36.0,61,36,17,0.00,40.00,2,1,6,0.00
2013-6-8,98.0,81.6,55.0,57.0,49.3,41.0,62,36,17,0.00,40.00,2,1,6,0.00
2013-6-9,87.0,75.7,60.0,60.0,52.7,47.0,64,46,35,0.00,40.00,2,1,8,0.00
2013-6-10,72.0,63.1,50.0,50.0,47.8,43.0,92,59,39,0.00,40.00,3,1,6,0.00
2013-6-11,82.0,68.0,44.0,48.0,42.0,35.0,95,44,19,0.00,40.00,2,1,6,0.00
2013-6-14,79.0,70.7,42.0,37.0,34.3,27.0,59,28,18,0.00,40.00,2,1,5,0.00
2013-6-15,82.0,70.5,43.0,38.0,30.1,26.0,57,25,14,0.00,40.00,2,1,5,0.00
2013-6-16,82.0,73.4,56.0,37.0,33.8,31.0,44,24,17,0.00,40.00,3,2,8,0.00
2013-6-17,80.0,65.4,47.0,42.0,34.6,32.0,61,34,21,0.00,40.00,3,1,6,0.00
2013-6-18,77.0,63.3,44.0,42.0,33.8,30.0,59,35,23,0.00,40.00,2,1,6,0.00
2013-6-19,72.0,60.4,36.0,36.0,30.0,24.0,73,34,19,0.00,40.00,2,1,6,0.00
2013-6-20,74.0,63.0,37.0,34.0,29.6,25.0,65,31,20,0.00,40.00,2,1,5,0.00
2013-6-22,83.0,73.3,55.0,40.0,37.3,35.0,50,28,20,0.00,40.00,2,1,5,0.00
2013-6-23,75.0,64.8,51.0,43.0,39.4,35.0,65,41,26,0.00,40.00,2,1,6,0.00
2013-6-24,61.0,55.5,48.0,53.0,45.3,37.0,90,69,57,0.00,40.00,2,0,5,0.04
2013-6-28,94.0,80.3,58.0,57.0,54.3,50.0,85,44,28,0.00,40.00,2,1,4,0.00
2013-6-29,97.0,84.9,62.0,56.0,52.4,48.0,73,36,23,0.00,40.00,3,1,6,0.00
2013-6-30,97.0,87.7,61.0,57.0,52.6,49.0,67,32,21,0.00,40.00,2,1,4,0.00
2013-7-1,100.0,85.6,61.0,57.0,52.1,44.0,54,34,19,0.00,40.00,2,1,6,0.00
2013-7-2,90.0,82.7,65.0,59.0,55.4,48.0,63,40,31,0.00,40.00,2,1,6,0.00
2013-7-3,95.0,85.5,59.0,57.0,54.5,49.0,69,36,25,0.00,40.00,2,1,5,0.00
2013-7-4,97.0,85.2,68.0,59.0,56.1,52.0,65,39,27,0.00,40.00,2,1,6,0.00
2013-7-9,94.0,82.8,64.0,39.0,30.0,25.0,38,16,10,0.00,40.00,2,1,5,0.00
2013-7-10,90.0,80.1,67.0,43.0,34.2,-99.9,35,21,12,0.00,40.00,2,1,5,0.00
2013-7-11,87.0,74.0,64.0,47.0,38.8,30.0,47,30,17,0.00,40.00,3,1,6,0.00
2013-7-12,88.0,78.3,59.0,42.0,35.3,31.0,45,22,16,0.00,40.00,2,1,7,0.00
2013-7-13,86.0,79.1,61.0,39.0,34.1,31.0,42,21,14,0.00,40.00,3,1,7,0.00
2013-7-14,92.0,82.5,53.0,39.0,34.4,29.0,40,19,14,0.00,40.00,2,1,5,0.00
2013-7-15,88.0,82.0,54.0,39.0,34.9,33.0,47,19,15,0.00,40.00,3,2,6,0.00
2013-7-16,84.0,76.8,59.0,39.0,34.9,31.0,41,23,17,0.00,40.00,2,1,6,0.00
2013-7-17,88.0,79.6,61.0,42.0,37.6,27.0,43,23,15,0.00,40.00,2,1,5,0.00
2013-7-18,94.0,82.4,65.0,44.0,41.1,38.0,40,25,18,0.00,40.00,2,1,4,0.00
2013-7-19,97.0,83.8,54.0,46.0,43.1,36.0,51,26,17,0.00,40.00,2,1,4,0.00
2013-7-20,96.0,79.9,58.0,47.0,41.9,-99.9,56,29,18,0.00,40.00,2,1,7,0.00
2013-7-21,96.0,81.6,58.0,48.0,43.4,39.0,54,28,18,0.00,40.00,2,1,5,0.00
2013-7-22,91.0,74.9,61.0,60.0,49.4,39.0,88,45,21,0.00,40.00,2,1,8,0.00
2013-7-23,84.0,70.4,59.0,58.0,53.9,48.0,90,60,29,0.00,40.00,1,0,3,0.00
2013-7-24,90.0,79.6,59.0,53.0,49.3,46.0,75,37,23,0.00,40.00,3,1,8,0.00
2013-7-25,88.0,77.3,60.0,53.0,50.0,47.0,61,40,29,0.00,40.00,1,1,4,0.00
2013-7-26,92.0,78.8,61.0,56.0,48.0,41.0,64,37,19,0.00,40.00,2,1,6,0.00
2013-8-21,88.0,79.4,58.0,47.0,37.2,30.0,54,23,13,0.00,40.00,3,2,7,0.00
2013-8-22,88.0,77.5,57.0,41.0,32.2,25.0,43,20,13,0.00,40.00,4,2,9,0.00
2013-8-23,86.0,75.7,52.0,38.0,33.3,21.0,39,22,15,0.00,40.00,2,1,6,0.00
2013-8-24,85.0,73.4,48.0,37.0,34.1,28.0,45,25,17,0.00,40.00,2,1,7,0.00
2013-8-25,81.0,72.8,50.0,39.0,36.1,30.0,47,28,20,0.00,40.00,4,2,7,0.00
2013-8-26,86.0,72.5,50.0,40.0,35.4,28.0,51,28,17,0.00,40.00,3,1,7,0.00
2013-8-27,85.0,75.1,62.0,44.0,40.7,35.0,37,30,24,0.00,40.00,1,1,4,0.00